Colebrook, NH

3:01 AM EDT on October 22, 2019 (GMT -0400)
Main Street Downtown Colebrook | | Change Station

Elev 1056 ft 44.90 °N, 71.49 °W | Updated 27 seconds ago

Partly Cloudy
Partly Cloudy
30.4 °F
Feels Like 30 °F
N
0
Wind Variable Wind from SSE
Gusts 0.0 mph

Today
High -- | Low -- °F
--% Chance of Precip.
Yesterday
High -- | Low -- °F
Precip. -- in
Pressure 30.21 in
Visibility 0.2 miles
Clouds
Windchill 30 °F
Dew Point 30 °F
Humidity 99%
Rainfall 0.00 in
Snow Depth Not available.
7:10 AM 5:49 PM
Last Quarter, 41% visible
METAR KBML 220652Z AUTO 00000KT 1/4SM FZFG VV001 M01/M01 A3018 RMK AO2 SLP229 I1000 T10061011 $
Pressure 30.21 in
Visibility 0.2 miles
Clouds
Windchill 30 °F
Dew Point 30 °F
Humidity 99%
Rainfall 0.00 in
Snow Depth Not available.
7:10 AM 5:49 PM
Last Quarter, 41% visible
METAR KBML 220652Z AUTO 00000KT 1/4SM FZFG VV001 M01/M01 A3018 RMK AO2 SLP229 I1000 T10061011 $

Get Severe Weather Alerts

Thanks for signing up!

Be on the lookout for a verification email in your inbox.

You'll start receiving the daily forecast at 6 AM.

×

10-Day Weather Forecast

Almanac

Astronomy

Oct. 22, 2019 Rise Set
Actual Time
Civil Twilight
Nautical Twilight
Astronomical Twilight
Moon
Length of Visible Light
Length of Day
Tomorrow will be .
, % of the Moon is Illuminated

Today's Extremes

State Highs State Lows

Community

WunderPhotos

Category 6

Welcome to Category 6. This is the collective home for Weather Underground's featured writeups by Dr. Jeff Masters (right), Bob Henson (left), Chris Burt, and other regular contributors.

Nearby

Air Quality

  Air Quality AQ Index Pollutant
Not available.

Snow Depth

Station Depth Elevation

Earthquake Activity

City Distance Mag. Time & Date
Minimum magnitude displayed is 2.5.

Coastal Water Temperatures

Place Temperature

Stations

Nearby Weather Stations

Station Location Temp. Windchill Dew Point Humidity Wind Precip. Elev Updated Type
                   

Watches & Warnings

There are currently no watches in effect.